Terminal Aerodrome Forecast
Issued by NWS Mt. Holly, NJ

Home | Current Version | Previous Version | Text Only | Print | Product List | Glossary On
Versions: 1 2 3 4 5 6 7 8 9 10 11 12 13 14 15 16 17
000
FTUS41 KPHI 291100 RRA
TAFABE
TAF
KABE 291143Z 2912/3012 VRB03KT P6SM SKC
     FM291600 12006KT P6SM BKN100
     FM292300 14004KT 3SM -SN OVC040
     FM292330 16006KT 1SM -SN SCT009 OVC015
     FM300500 17004KT 3SM -SHSN OVC020
     FM300700 19004KT 5SM BR OVC020
     FM300900 29010KT P6SM SCT015 OVC040=

USA.gov is the U.S. government's official web portal to all federal, state and local government web resources and services.